Peawanuck Airport
CYPO : now visible

Aeroporto :











RITROVATECI SU...

 
LOGIN :

Iscrizione | Disclaimer

   EN    FR    IT 

 









Sommario :    VFR   VFR Marginale   IFR   IFR Intensivo   IFR Molto Intensivo
Visibilità : 
Base nubi : 
>= 8 km
>= 3000ft
5 / 8 km
1000 / 3000 ft
1500m / 5 km
500 / 1000 ft
800 / 1500m
200 / 500 ft
< 800m
< 200 ft
Simboli :   Temporali  Nebbia  Neve Forte  Precipitazioni Forti  Vento > 20 kt






- Altitudine del aeroporto : 173 ft
- Codice IATA : YPO


CYPO - Peawanuck

ULTIMO METAR :
  • 170400Z AUTO 18011G17KT 9SM BKN048 19/14 A2938 RMK SLP949 DENSITY ALT 1300FT

METARs OBSOLETI :
  • 170300Z AUTO 17011G18KT 9SM SCT060 OVC160 20/14 A2939 RMK SLP953 DENSITY ALT 1400FT
  • 170200Z AUTO 18014G21KT 9SM OVC055 21/15 A2941 RMK SLP960 DENSITY ALT 1500FT
  • 170100Z AUTO 19012G18KT 9SM OVC050 22/15 A2942 RMK SLP964 DENSITY ALT 1700FT
  • 170000Z AUTO 18013G22KT 9SM BKN048 OVC210 23/15 A2944 RMK SLP969 DENSITY ALT 1700FT

TAF N/A
FIR CZWG / America del Nord



MetMap, La meteo Aeronautica in un colpo d'occhio ! - Copyright ORBIFLY Dicembre 2007 - Disclaimer

ORBIFLY MET'MAP TEAM :

Programmazione e sviluppo : Alexandra Zaïnal
Concezione : Baudouin d'Aumeries
Supporto tecnico e logistico : Manuel Goepfert
Aiuto : Marc-Olivier Méhu
Aiuto per la traduzione : Arnaldo La Scala




FONTI E CREDITI :

   NOAA       Earth
Advisory